Time;durP1;ratioP1;P1;durP2;ratioP2;P2;SDS_P1;SDS_P2;PMS_P1;PMS_P2;Temp;Humidity;BMP_temperature;BMP_pressure;BME280_temperature;BME280_humidity;BME280_pressure;Samples;Min_cycle;Max_cycle;Signal;HPM_P1;HPM_P2
2021/09/20 00:00:55;;;;;;;;;;;;;;;9.91;80.09;100131.72;1695190;83;20275;-86
2021/09/20 00:03:21;;;;;;;;;;;;;;;9.93;80.72;100133.73;1691371;83;20140;-86
2021/09/20 00:05:47;;;;;;;;;;;;;;;9.97;80.49;100135.06;1690625;83;20447;-85
2021/09/20 00:08:12;;;;;;;;;;;;;;;9.96;80.11;100133.43;1692062;84;20138;-89
2021/09/20 00:10:38;;;;;;;;;;;;;;;10.01;79.86;100143.03;1693840;83;21022;-87
2021/09/20 00:13:06;;;;;;;;;;;;;;;9.96;79.12;100135.22;1690711;83;20443;-86
2021/09/20 00:15:31;;;;;;;;;;;;;;;9.80;78.89;100143.83;1692467;82;20150;-86
2021/09/20 00:17:57;;;;;;;;;;;;;;;9.89;79.11;100142.92;1692220;82;20226;-87
2021/09/20 00:20:25;;;;;;;;;;;;;;;9.77;78.90;100138.86;1691203;84;20474;-86
2021/09/20 00:22:52;;;;;;;;;;;;;;;9.88;78.87;100143.42;1690091;84;21081;-86
2021/09/20 00:25:19;;;;;;;;;;;;;;;9.82;78.37;100140.55;1691699;83;20125;-87
2021/09/20 00:27:46;;;;;;;;;;;;;;;9.79;77.56;100137.73;1691806;83;20177;-86
2021/09/20 00:30:14;;;;;;;;;;;;;;;9.80;77.66;100147.79;1692311;84;20270;-87
2021/09/20 00:32:43;;;;;;;;;;;;;;;9.69;78.12;100143.09;1695851;83;20231;-87
2021/09/20 00:35:10;;;;;;;;;;;;;;;9.73;77.89;100149.39;1689287;83;22006;-86
2021/09/20 00:37:36;;;;;;;;;;;;;;;9.66;77.98;100148.67;1693934;83;20210;-86
2021/09/20 00:40:01;;;;;;;;;;;;;;;9.75;78.07;100150.06;1693240;83;20650;-85
2021/09/20 00:42:27;;;;;;;;;;;;;;;9.81;78.24;100149.45;1696538;83;20410;-85
2021/09/20 00:44:53;;;;;;;;;;;;;;;9.76;78.11;100149.09;1692786;83;20152;-87
2021/09/20 00:47:18;;;;;;;;;;;;;;;9.62;78.29;100147.30;1696085;83;21969;-84
2021/09/20 00:49:44;;;;;;;;;;;;;;;9.76;78.43;100146.45;1691678;82;20162;-84
2021/09/20 00:52:12;;;;;;;;;;;;;;;9.79;78.55;100148.75;1694170;83;21190;-90
2021/09/20 00:54:41;;;;;;;;;;;;;;;9.83;78.30;100151.44;1696736;83;20753;-85
2021/09/20 00:57:06;;;;;;;;;;;;;;;9.77;78.36;100152.89;1707050;83;20536;-84
2021/09/20 00:59:32;;;;;;;;;;;;;;;9.54;79.01;100160.41;1711784;83;21087;-85
2021/09/20 01:01:59;;;;;;;;;;;;;;;9.68;79.19;100151.16;1708646;83;20157;-86
2021/09/20 01:04:24;;;;;;;;;;;;;;;9.68;79.12;100148.02;1707885;82;20642;-85
2021/09/20 01:06:50;;;;;;;;;;;;;;;9.70;79.02;100143.92;1713260;83;20461;-85
2021/09/20 01:09:16;;;;;;;;;;;;;;;9.57;79.03;100149.57;1706821;82;20146;-84
2021/09/20 01:11:43;;;;;;;;;;;;;;;9.67;78.81;100148.17;1710198;81;22028;-84
2021/09/20 01:14:08;;;;;;;;;;;;;;;9.69;78.78;100145.73;1704797;83;20476;-85
2021/09/20 01:16:34;;;;;;;;;;;;;;;9.65;79.16;100144.37;1707896;82;20178;-85
2021/09/20 01:18:59;;;;;;;;;;;;;;;9.59;79.06;100143.65;1711886;83;20155;-85
2021/09/20 01:21:25;;;;;;;;;;;;;;;9.63;79.63;100145.48;1705826;83;20157;-84
2021/09/20 01:23:50;;;;;;;;;;;;;;;9.64;79.17;100150.61;1707029;82;21245;-84
2021/09/20 01:26:16;;;;;;;;;;;;;;;9.68;79.03;100144.06;1707565;82;20178;-84
2021/09/20 01:28:43;;;;;;;;;;;;;;;9.61;79.29;100147.45;1690133;83;20243;-86
2021/09/20 01:31:09;;;;;;;;;;;;;;;9.63;78.99;100138.42;1707830;82;20192;-85
2021/09/20 01:33:34;;;;;;;;;;;;;;;9.68;79.01;100133.52;1709748;82;20162;-84
2021/09/20 01:36:00;;;;;;;;;;;;;;;9.64;78.09;100137.42;1707202;82;21030;-84
2021/09/20 01:38:26;;;;;;;;;;;;;;;9.72;78.46;100135.86;1701679;83;20159;-84
2021/09/20 01:40:51;;;;;;;;;;;;;;;9.65;78.44;100133.82;1703885;83;20189;-84
2021/09/20 01:43:17;;;;;;;;;;;;;;;9.74;78.44;100134.73;1705765;82;20433;-85
2021/09/20 01:45:42;;;;;;;;;;;;;;;9.78;77.99;100133.94;1711962;82;20185;-84
2021/09/20 01:48:08;;;;;;;;;;;;;;;9.80;78.22;100133.28;1707043;82;21027;-85
2021/09/20 01:50:34;;;;;;;;;;;;;;;9.85;77.74;100132.33;1710324;83;20447;-85
2021/09/20 01:52:59;;;;;;;;;;;;;;;10.05;77.28;100132.52;1704295;82;20316;-86
2021/09/20 01:55:25;;;;;;;;;;;;;;;10.02;76.44;100132.83;1708932;82;20249;-84
2021/09/20 01:57:54;;;;;;;;;;;;;;;10.10;76.21;100139.13;1707104;83;20194;-86
2021/09/20 02:00:20;;;;;;;;;;;;;;;10.15;75.51;100134.23;1708269;82;20138;-84
2021/09/20 02:02:46;;;;;;;;;;;;;;;10.10;75.70;100134.70;1686901;83;20302;-84
2021/09/20 02:05:12;;;;;;;;;;;;;;;10.12;75.62;100133.23;1706411;83;21192;-87
2021/09/20 02:07:37;;;;;;;;;;;;;;;10.09;75.87;100134.85;1706263;82;20716;-85
2021/09/20 02:10:04;;;;;;;;;;;;;;;10.03;75.70;100134.46;1711602;83;20147;-84
2021/09/20 02:12:29;;;;;;;;;;;;;;;10.04;75.65;100144.05;1700889;82;21085;-84
2021/09/20 02:14:55;;;;;;;;;;;;;;;10.03;74.86;100138.42;1705539;83;21084;-84
2021/09/20 02:17:20;;;;;;;;;;;;;;;9.99;75.86;100145.00;1710458;82;20147;-84
2021/09/20 02:19:49;;;;;;;;;;;;;;;9.94;75.78;100143.29;1705635;83;20169;-88
2021/09/20 02:22:15;;;;;;;;;;;;;;;9.98;75.69;100142.02;1704821;83;20181;-85
2021/09/20 02:24:41;;;;;;;;;;;;;;;9.73;75.43;100142.80;1711692;83;21124;-85
2021/09/20 02:27:15;;;;;;;;;;;;;;;9.68;75.87;100141.43;1704229;83;20834;-85
2021/09/20 02:29:42;;;;;;;;;;;;;;;9.72;76.34;100137.99;1702569;83;20512;-85
2021/09/20 02:32:07;;;;;;;;;;;;;;;9.76;76.18;100141.18;1703294;82;20130;-87
2021/09/20 02:34:34;;;;;;;;;;;;;;;9.75;76.37;100132.92;1710607;83;20134;-85
2021/09/20 02:37:00;;;;;;;;;;;;;;;9.65;76.02;100143.55;1705714;82;21301;-86
2021/09/20 02:39:26;;;;;;;;;;;;;;;9.62;76.58;100139.39;1705659;82;20385;-87
2021/09/20 02:41:51;;;;;;;;;;;;;;;9.69;77.62;100136.98;1707436;82;20139;-85
2021/09/20 02:44:19;;;;;;;;;;;;;;;9.67;76.77;100139.77;1703490;83;20160;-86
2021/09/20 02:46:44;;;;;;;;;;;;;;;9.64;77.19;100137.42;1709738;83;20243;-86
2021/09/20 02:49:10;;;;;;;;;;;;;;;9.68;76.94;100138.80;1705440;82;21166;-87
2021/09/20 02:51:35;;;;;;;;;;;;;;;9.75;77.15;100138.19;1708015;83;20215;-86
2021/09/20 02:54:01;;;;;;;;;;;;;;;9.69;77.30;100145.73;1705720;83;20509;-86
2021/09/20 02:56:28;;;;;;;;;;;;;;;9.58;77.78;100140.66;1688761;82;20897;-87
2021/09/20 02:58:54;;;;;;;;;;;;;;;9.63;77.97;100129.66;1711761;82;20248;-87
2021/09/20 03:01:19;;;;;;;;;;;;;;;9.58;77.98;100135.39;1707113;83;22431;-86
2021/09/20 03:03:45;;;;;;;;;;;;;;;9.63;78.56;100129.20;1708696;82;20155;-86
2021/09/20 03:06:10;;;;;;;;;;;;;;;9.65;78.82;100125.91;1706041;82;20544;-90
2021/09/20 03:08:36;;;;;;;;;;;;;;;9.58;79.14;100132.75;1706199;83;20717;-88
2021/09/20 03:11:01;;;;;;;;;;;;;;;9.63;79.42;100134.47;1709480;82;20126;-87
2021/09/20 03:13:29;;;;;;;;;;;;;;;9.63;79.77;100130.52;1712411;82;21166;-84
2021/09/20 03:15:54;;;;;;;;;;;;;;;9.63;80.50;100133.16;1709817;82;20310;-84
2021/09/20 03:18:22;;;;;;;;;;;;;;;9.57;80.55;100140.81;1710730;82;20179;-85
2021/09/20 03:20:49;;;;;;;;;;;;;;;9.62;81.05;100137.26;1710523;83;20147;-84
2021/09/20 03:23:16;;;;;;;;;;;;;;;9.58;80.37;100140.66;1712773;82;20615;-84
2021/09/20 03:25:44;;;;;;;;;;;;;;;9.36;81.40;100137.16;1706341;82;21975;-83
2021/09/20 03:28:09;;;;;;;;;;;;;;;9.41;81.26;100138.84;1709065;82;20164;-84
2021/09/20 03:30:36;;;;;;;;;;;;;;;9.43;81.77;100140.37;1711075;81;20455;-84
2021/09/20 03:33:01;;;;;;;;;;;;;;;9.47;82.19;100138.25;1708816;82;20162;-85
2021/09/20 03:35:29;;;;;;;;;;;;;;;9.49;81.54;100137.14;1712226;82;21281;-85
2021/09/20 03:37:54;;;;;;;;;;;;;;;9.43;82.12;100140.84;1705708;82;21131;-86
2021/09/20 03:40:20;;;;;;;;;;;;;;;9.51;81.54;100137.80;1654626;82;20261;-86
2021/09/20 03:42:47;;;;;;;;;;;;;;;9.55;81.64;100137.01;1703879;82;20193;-86
2021/09/20 03:45:15;;;;;;;;;;;;;;;9.59;81.30;100142.33;1707761;82;20186;-85
2021/09/20 03:47:43;;;;;;;;;;;;;;;9.42;81.73;100147.11;1707848;83;20248;-85
2021/09/20 03:50:14;;;;;;;;;;;;;;;9.40;82.15;100138.50;1707828;81;21010;-86
2021/09/20 03:52:42;;;;;;;;;;;;;;;9.22;82.62;100159.06;1706139;82;20127;-86
2021/09/20 03:55:09;;;;;;;;;;;;;;;9.16;82.78;100162.29;1711359;82;20428;-87
2021/09/20 03:57:35;;;;;;;;;;;;;;;9.02;83.26;100154.88;1698699;82;20210;-87
2021/09/20 04:00:00;;;;;;;;;;;;;;;9.10;83.10;100157.61;1691869;83;20208;-84
2021/09/20 04:02:28;;;;;;;;;;;;;;;8.97;83.65;100150.87;1694415;82;21202;-86
2021/09/20 04:04:56;;;;;;;;;;;;;;;9.02;83.38;100153.56;1693720;83;20473;-86
2021/09/20 04:07:22;;;;;;;;;;;;;;;9.10;83.08;100151.84;1692653;82;20244;-86
2021/09/20 04:09:50;;;;;;;;;;;;;;;9.09;83.10;100152.83;1690183;84;20206;-85
2021/09/20 04:12:17;;;;;;;;;;;;;;;9.11;83.15;100156.64;1692240;83;20182;-86
2021/09/20 04:14:42;;;;;;;;;;;;;;;9.22;82.78;100159.06;1695928;83;22026;-85
2021/09/20 04:17:09;;;;;;;;;;;;;;;9.24;82.54;100159.73;1671351;83;20158;-86
2021/09/20 04:19:37;;;;;;;;;;;;;;;9.21;82.03;100160.03;1693894;84;20177;-84
2021/09/20 04:22:08;;;;;;;;;;;;;;;9.35;82.19;100158.70;1694912;83;20500;-87
2021/09/20 04:24:35;;;;;;;;;;;;;;;9.31;81.54;100160.81;1690029;83;20156;-86
2021/09/20 04:27:00;;;;;;;;;;;;;;;9.41;81.52;100158.62;1692199;83;21077;-89
2021/09/20 04:29:26;;;;;;;;;;;;;;;9.46;82.04;100154.56;1693952;84;20189;-89
2021/09/20 04:31:52;;;;;;;;;;;;;;;9.54;81.36;100161.73;1693161;83;20357;-87
2021/09/20 04:34:19;;;;;;;;;;;;;;;9.52;81.24;100161.03;1694323;82;20153;-85
2021/09/20 04:36:47;;;;;;;;;;;;;;;9.45;80.65;100159.98;1694376;83;20189;-85
2021/09/20 04:39:13;;;;;;;;;;;;;;;9.40;80.33;100155.16;1693322;83;21154;-84
2021/09/20 04:41:40;;;;;;;;;;;;;;;9.47;80.30;100165.93;1691001;83;20146;-87
2021/09/20 04:44:07;;;;;;;;;;;;;;;9.55;79.92;100166.01;1691150;83;20162;-85
2021/09/20 04:46:37;;;;;;;;;;;;;;;9.49;79.72;100157.38;1692713;83;20246;-85
2021/09/20 04:49:04;;;;;;;;;;;;;;;9.53;79.51;100161.38;1694200;83;20496;-87
2021/09/20 04:51:30;;;;;;;;;;;;;;;9.46;79.66;100171.70;1692632;83;21172;-86
2021/09/20 04:53:57;;;;;;;;;;;;;;;9.38;79.87;100170.27;1695093;83;20255;-85
2021/09/20 04:56:24;;;;;;;;;;;;;;;9.27;80.10;100166.03;1694092;83;20330;-87
2021/09/20 04:58:50;;;;;;;;;;;;;;;9.25;80.46;100174.58;1717856;82;20197;-85
2021/09/20 05:01:19;;;;;;;;;;;;;;;9.23;80.56;100177.02;1718050;82;20328;-87
2021/09/20 05:03:46;;;;;;;;;;;;;;;9.25;80.72;100173.77;1714167;82;20670;-84
2021/09/20 05:06:13;;;;;;;;;;;;;;;9.19;80.54;100175.17;1717175;82;20172;-85
2021/09/20 05:08:39;;;;;;;;;;;;;;;9.10;81.18;100173.41;1722215;82;20201;-87
2021/09/20 05:11:04;;;;;;;;;;;;;;;9.15;81.57;100175.11;1720259;82;20216;-85
2021/09/20 05:13:30;;;;;;;;;;;;;;;9.24;81.75;100190.54;1722231;82;20162;-84
2021/09/20 05:15:59;;;;;;;;;;;;;;;9.21;81.39;100185.06;1718864;82;21112;-85
2021/09/20 05:18:25;;;;;;;;;;;;;;;9.25;81.55;100185.63;1720141;82;20199;-90
2021/09/20 05:20:50;;;;;;;;;;;;;;;9.29;81.36;100183.86;1718589;82;20152;-84
2021/09/20 05:23:17;;;;;;;;;;;;;;;9.19;82.10;100184.39;1719782;82;20788;-88
2021/09/20 05:25:45;;;;;;;;;;;;;;;9.29;82.60;100177.74;1719057;82;20633;-83
2021/09/20 05:28:10;;;;;;;;;;;;;;;9.28;83.46;100184.02;1720970;82;22353;-82
2021/09/20 05:30:43;;;;;;;;;;;;;;;9.21;84.58;100192.97;1717454;82;20129;-84
2021/09/20 05:33:10;;;;;;;;;;;;;;;9.19;86.19;100188.34;1716424;81;20543;-82
2021/09/20 05:35:38;;;;;;;;;;;;;;;9.22;87.52;100190.69;1720902;82;21578;-83
2021/09/20 05:38:07;;;;;;;;;;;;;;;9.04;87.68;100191.11;1718622;82;20202;-88
2021/09/20 05:40:36;;;;;;;;;;;;;;;8.82;88.83;100194.45;1721262;82;21180;-86
2021/09/20 05:43:07;;;;;;;;;;;;;;;8.93;89.26;100182.44;1718872;82;20214;-84
2021/09/20 05:45:35;;;;;;;;;;;;;;;8.83;89.95;100192.17;1718758;82;20126;-84
2021/09/20 05:48:08;;;;;;;;;;;;;;;8.84;89.91;100188.57;1718243;82;20190;-83
2021/09/20 05:50:36;;;;;;;;;;;;;;;8.71;90.89;100208.61;1721256;81;20506;-87
2021/09/20 05:53:06;;;;;;;;;;;;;;;8.56;91.74;100187.66;1715038;82;21784;-84
2021/09/20 05:55:37;;;;;;;;;;;;;;;8.55;91.99;100189.47;1721771;82;20189;-86
2021/09/20 05:58:03;;;;;;;;;;;;;;;8.60;92.56;100187.23;1718570;82;20137;-86
2021/09/20 06:00:32;;;;;;;;;;;;;;;8.71;91.69;100189.36;1712796;82;20191;-84
2021/09/20 06:03:02;;;;;;;;;;;;;;;8.63;92.78;100198.80;1716535;82;20160;-85
2021/09/20 06:05:30;;;;;;;;;;;;;;;8.55;92.46;100185.52;1718560;82;21158;-83
2021/09/20 06:08:00;;;;;;;;;;;;;;;8.60;93.16;100188.55;1722824;82;20150;-85
2021/09/20 06:10:29;;;;;;;;;;;;;;;8.62;92.42;100178.73;1722355;82;20113;-84
2021/09/20 06:12:56;;;;;;;;;;;;;;;8.61;92.99;100182.32;1719854;82;20558;-88
2021/09/20 06:15:24;;;;;;;;;;;;;;;8.78;93.17;100185.20;1717459;82;20197;-85
2021/09/20 06:17:57;;;;;;;;;;;;;;;8.80;92.75;100188.51;1718110;82;20967;-85
2021/09/20 06:20:29;;;;;;;;;;;;;;;8.64;92.59;100178.59;1718113;82;20568;-86
2021/09/20 06:23:03;;;;;;;;;;;;;;;8.55;92.79;100193.42;1719183;82;20136;-83
2021/09/20 06:25:30;;;;;;;;;;;;;;;8.48;93.57;100189.68;1712941;82;20834;-83
2021/09/20 06:27:56;;;;;;;;;;;;;;;8.50;93.59;100181.18;1716629;82;20255;-82
2021/09/20 06:30:23;;;;;;;;;;;;;;;8.52;93.95;100183.17;1719585;82;20776;-85
2021/09/20 06:32:52;;;;;;;;;;;;;;;8.57;93.98;100184.88;1720014;82;20528;-84
2021/09/20 06:35:17;;;;;;;;;;;;;;;8.69;93.47;100183.42;1714160;82;20221;-84
2021/09/20 06:37:43;;;;;;;;;;;;;;;8.56;92.67;100177.98;1716006;82;20754;-86
2021/09/20 06:40:12;;;;;;;;;;;;;;;8.76;92.18;100180.54;1717900;82;20160;-85
2021/09/20 06:42:42;;;;;;;;;;;;;;;8.92;92.19;100189.17;1721337;81;20164;-83
2021/09/20 06:45:09;;;;;;;;;;;;;;;9.08;90.84;100184.59;1718760;82;20122;-85
2021/09/20 06:47:35;;;;;;;;;;;;;;;8.96;89.91;100183.47;1718326;82;20178;-85
2021/09/20 06:50:03;;;;;;;;;;;;;;;8.90;89.02;100189.78;1718368;82;20188;-83
2021/09/20 06:52:32;;;;;;;;;;;;;;;8.79;87.47;100193.42;1719878;82;20494;-86
2021/09/20 06:55:00;;;;;;;;;;;;;;;8.96;88.73;100191.37;1719486;82;20144;-81
2021/09/20 06:57:25;;;;;;;;;;;;;;;9.09;89.41;100202.89;1696606;83;20732;-81
2021/09/20 06:59:53;;;;;;;;;;;;;;;9.11;87.75;100202.74;1718251;82;20263;-81
2021/09/20 07:02:19;;;;;;;;;;;;;;;9.03;86.40;100201.33;1715670;82;20121;-80
2021/09/20 07:04:44;;;;;;;;;;;;;;;9.06;86.51;100201.01;1719076;82;20467;-83
2021/09/20 07:07:13;;;;;;;;;;;;;;;9.08;86.78;100202.53;1718983;82;20595;-82
2021/09/20 07:09:39;;;;;;;;;;;;;;;9.10;87.01;100202.39;1719718;81;20121;-83
2021/09/20 07:12:05;;;;;;;;;;;;;;;9.15;86.38;100208.04;1697964;83;20137;-81
2021/09/20 07:14:32;;;;;;;;;;;;;;;9.21;86.16;100211.41;1720476;82;20197;-82
2021/09/20 07:17:01;;;;;;;;;;;;;;;9.27;86.01;100213.47;1694050;82;20524;-85
2021/09/20 07:19:28;;;;;;;;;;;;;;;9.32;85.79;100222.25;1716320;81;20474;-82
2021/09/20 07:21:53;;;;;;;;;;;;;;;9.39;85.55;100218.56;1717337;82;20129;-85
2021/09/20 07:24:19;;;;;;;;;;;;;;;9.42;84.48;100218.27;1726728;82;20165;-83
2021/09/20 07:26:44;;;;;;;;;;;;;;;9.46;85.62;100223.10;1717464;82;21073;-81
2021/09/20 07:29:11;;;;;;;;;;;;;;;9.49;84.20;100221.95;1715179;82;20133;-81
2021/09/20 07:31:41;;;;;;;;;;;;;;;9.60;83.48;100221.77;1720772;82;21156;-82
2021/09/20 07:34:10;;;;;;;;;;;;;;;9.61;83.45;100224.73;1716220;82;20135;-85
2021/09/20 07:36:37;;;;;;;;;;;;;;;9.64;83.21;100227.07;1719716;82;20178;-84
2021/09/20 07:39:03;;;;;;;;;;;;;;;9.61;83.40;100223.41;1717113;82;20160;-86
2021/09/20 07:41:31;;;;;;;;;;;;;;;9.73;82.51;100228.00;1696915;83;20184;-85
2021/09/20 07:43:57;;;;;;;;;;;;;;;9.88;81.75;100234.42;1714577;82;21090;-86
2021/09/20 07:46:23;;;;;;;;;;;;;;;9.83;79.16;100226.11;1718105;82;20423;-84
2021/09/20 07:48:53;;;;;;;;;;;;;;;9.79;77.80;100231.83;1716668;82;20227;-85
2021/09/20 07:51:19;;;;;;;;;;;;;;;9.88;78.35;100230.94;1721171;82;20491;-87
2021/09/20 07:53:45;;;;;;;;;;;;;;;9.85;77.23;100228.59;1718523;82;20267;-87
2021/09/20 07:56:12;;;;;;;;;;;;;;;9.87;77.53;100229.30;1725218;82;22025;-85
2021/09/20 07:58:38;;;;;;;;;;;;;;;9.88;76.72;100225.66;1716404;82;20175;-84
2021/09/20 08:01:04;;;;;;;;;;;;;;;9.88;74.49;100233.58;1720188;82;20315;-85
2021/09/20 08:03:30;;;;;;;;;;;;;;;9.77;73.52;100244.34;1697030;82;20177;-84
2021/09/20 08:05:56;;;;;;;;;;;;;;;9.86;73.25;100239.50;1720658;82;20422;-86
2021/09/20 08:08:25;;;;;;;;;;;;;;;9.99;74.42;100236.02;1697900;82;21092;-84
2021/09/20 08:10:51;;;;;;;;;;;;;;;10.09;73.24;100240.39;1703632;82;20213;-86
2021/09/20 08:13:16;;;;;;;;;;;;;;;10.06;70.61;100241.01;1715649;82;20227;-88
2021/09/20 08:15:45;;;;;;;;;;;;;;;9.87;69.45;100241.17;1717343;82;20188;-86
2021/09/20 08:18:17;;;;;;;;;;;;;;;10.04;69.74;100246.12;1700199;82;20966;-87
2021/09/20 08:20:44;;;;;;;;;;;;;;;10.12;69.87;100245.37;1719565;82;22393;-87
2021/09/20 08:23:09;;;;;;;;;;;;;;;10.20;69.21;100248.89;1722214;82;20185;-83
2021/09/20 08:25:37;;;;;;;;;;;;;;;10.18;68.13;100244.27;1716665;82;20275;-85
2021/09/20 08:28:04;;;;;;;;;;;;;;;10.26;68.75;100246.65;1717696;82;20211;-87
2021/09/20 08:30:30;;;;;;;;;;;;;;;10.26;68.26;100244.83;1719199;82;20214;-86
2021/09/20 08:32:56;;;;;;;;;;;;;;;10.23;67.20;100255.69;1720686;81;21134;-84
2021/09/20 08:35:24;;;;;;;;;;;;;;;10.30;67.36;100255.43;1721094;82;20200;-87
2021/09/20 08:37:50;;;;;;;;;;;;;;;10.25;66.72;100262.95;1721897;82;20175;-84
2021/09/20 08:40:17;;;;;;;;;;;;;;;10.25;67.99;100252.39;1719780;82;20189;-85
2021/09/20 08:42:47;;;;;;;;;;;;;;;10.47;67.96;100256.91;1713061;82;20162;-87
2021/09/20 08:45:16;;;;;;;;;;;;;;;10.59;67.75;100267.56;1722758;82;22110;-85
2021/09/20 08:47:44;;;;;;;;;;;;;;;10.67;67.62;100245.16;1720210;82;20121;-86
2021/09/20 08:50:15;;;;;;;;;;;;;;;10.53;66.38;100261.57;1719906;82;20167;-84
2021/09/20 08:52:44;;;;;;;;;;;;;;;10.31;66.16;100268.95;1723066;82;20133;-86
2021/09/20 08:55:11;;;;;;;;;;;;;;;10.36;67.29;100262.78;1721773;82;20493;-86
2021/09/20 08:57:37;;;;;;;;;;;;;;;10.49;67.09;100270.80;1698386;82;21790;-84
2021/09/20 09:00:06;;;;;;;;;;;;;;;10.55;67.77;100272.80;1698978;82;20158;-86
2021/09/20 09:02:37;;;;;;;;;;;;;;;10.41;67.73;100264.46;1692681;83;20238;-85
2021/09/20 09:05:23;;;;;;;;;;;;;;;10.30;67.03;100272.59;1694101;83;20515;-86
2021/09/20 09:08:00;;;;;;;;;;;;;;;10.29;68.85;100266.96;1695265;83;20211;-83
2021/09/20 09:10:29;;;;;;;;;;;;;;;10.29;68.50;100277.52;1692349;83;21974;-87
2021/09/20 09:12:55;;;;;;;;;;;;;;;10.15;68.70;100272.77;1695392;83;20170;-87
2021/09/20 09:15:29;;;;;;;;;;;;;;;10.09;68.99;100274.69;1693331;83;20197;-84
2021/09/20 09:17:56;;;;;;;;;;;;;;;10.13;69.41;100269.44;1693304;82;20137;-84
2021/09/20 09:20:24;;;;;;;;;;;;;;;10.16;68.67;100260.75;1673256;84;20175;-86
2021/09/20 09:23:02;;;;;;;;;;;;;;;10.23;69.57;100263.61;1693818;84;21090;-84
2021/09/20 09:25:44;;;;;;;;;;;;;;;10.31;70.44;100255.75;1694861;84;20755;-85
2021/09/20 09:28:21;;;;;;;;;;;;;;;10.31;69.55;100266.31;1696022;84;20514;-85
2021/09/20 09:30:56;;;;;;;;;;;;;;;10.37;68.88;100261.77;1692257;84;20202;-84
2021/09/20 09:36:27;;;;;;;;;;;;;;;10.34;69.47;100274.45;1692112;82;20178;-84
2021/09/20 09:39:01;;;;;;;;;;;;;;;10.36;69.48;100274.66;1695728;83;20504;-87
2021/09/20 09:41:35;;;;;;;;;;;;;;;10.41;69.60;100280.30;1694221;83;20221;-85
2021/09/20 09:44:05;;;;;;;;;;;;;;;10.46;69.33;100281.66;1684983;83;20183;-84
2021/09/20 09:46:41;;;;;;;;;;;;;;;10.37;70.09;100285.53;1695410;83;20227;-84
2021/09/20 09:49:21;;;;;;;;;;;;;;;10.29;70.27;100282.80;1690306;83;21262;-87
2021/09/20 09:52:01;;;;;;;;;;;;;;;10.31;70.83;100283.47;1692032;83;20171;-83
2021/09/20 09:54:32;;;;;;;;;;;;;;;10.38;70.73;100285.06;1646545;83;20229;-86
2021/09/20 09:57:16;;;;;;;;;;;;;;;10.34;70.17;100287.16;1666912;83;20194;-88
2021/09/20 09:59:42;;;;;;;;;;;;;;;10.40;70.16;100284.41;1700606;82;20210;-85
2021/09/20 10:02:22;;;;;;;;;;;;;;;10.41;69.93;100276.34;1707892;83;21872;-85
2021/09/20 10:04:57;;;;;;;;;;;;;;;10.38;70.81;100281.92;1707170;83;20509;-83
2021/09/20 10:07:32;;;;;;;;;;;;;;;10.46;71.06;100286.95;1692074;83;20198;-84
2021/09/20 10:09:59;;;;;;;;;;;;;;;10.54;70.73;100287.00;1704545;83;20741;-83
2021/09/20 10:12:26;;;;;;;;;;;;;;;10.56;70.57;100288.48;1692065;83;20211;-85
2021/09/20 10:14:53;;;;;;;;;;;;;;;10.55;70.20;100293.92;1704757;83;20990;-84
2021/09/20 10:17:19;;;;;;;;;;;;;;;10.48;69.95;100279.69;1704675;82;20159;-84
2021/09/20 10:19:47;;;;;;;;;;;;;;;10.48;70.35;100290.25;1710708;83;20288;-84
2021/09/20 10:22:15;;;;;;;;;;;;;;;10.44;70.66;100292.38;1704307;83;20169;-83
2021/09/20 10:24:43;;;;;;;;;;;;;;;10.43;71.46;100294.67;1706839;83;20507;-85
2021/09/20 10:27:13;;;;;;;;;;;;;;;10.49;70.71;100299.84;1712161;83;21077;-86
2021/09/20 10:29:43;;;;;;;;;;;;;;;10.55;70.90;100299.20;1704263;83;20118;-81
2021/09/20 10:32:10;;;;;;;;;;;;;;;10.54;70.99;100290.97;1704281;83;20472;-93
2021/09/20 10:34:35;;;;;;;;;;;;;;;10.52;71.42;100297.72;1705813;82;20150;-82
2021/09/20 10:37:12;;;;;;;;;;;;;;;10.62;71.39;100294.98;1706413;83;20138;-84
2021/09/20 10:39:49;;;;;;;;;;;;;;;10.70;71.08;100298.18;1706967;82;20493;-86
2021/09/20 10:42:46;;;;;;;;;;;;;;;10.72;70.78;100298.37;1701015;82;20999;-86
2021/09/20 10:45:49;;;;;;;;;;;;;;;10.87;70.69;100300.45;1664745;82;20213;-88
2021/09/20 10:48:22;;;;;;;;;;;;;;;10.87;70.60;100303.09;1703918;82;38036;-82
2021/09/20 10:50:53;;;;;;;;;;;;;;;10.96;69.82;100299.53;1707580;83;20651;-85
2021/09/20 10:53:28;;;;;;;;;;;;;;;11.01;69.44;100297.24;1708771;83;21124;-88
2021/09/20 10:56:11;;;;;;;;;;;;;;;11.01;69.38;100305.17;1705912;83;20099;-84
2021/09/20 10:58:45;;;;;;;;;;;;;;;11.04;68.98;100304.86;1700350;83;20197;-83
2021/09/20 11:01:15;;;;;;;;;;;;;;;10.95;69.41;100304.47;1687677;83;20207;-88
2021/09/20 11:03:48;;;;;;;;;;;;;;;10.93;69.65;100306.45;1695519;83;20195;-83
2021/09/20 11:06:26;;;;;;;;;;;;;;;10.97;70.12;100303.84;1695900;83;21072;-85
2021/09/20 11:09:02;;;;;;;;;;;;;;;10.93;70.00;100309.09;1693695;83;20129;-82
2021/09/20 11:11:41;;;;;;;;;;;;;;;10.95;69.99;100303.99;1694371;83;20622;-86
2021/09/20 11:14:14;;;;;;;;;;;;;;;10.99;70.20;100300.54;1692383;82;21440;-84
2021/09/20 11:17:01;;;;;;;;;;;;;;;10.90;69.35;100310.72;1693523;83;20446;-85
2021/09/20 11:19:34;;;;;;;;;;;;;;;10.77;69.12;100313.77;1695546;83;20596;-87
2021/09/20 11:22:13;;;;;;;;;;;;;;;10.61;68.70;100315.77;1688184;83;20227;-84
2021/09/20 11:25:03;;;;;;;;;;;;;;;10.66;68.75;100315.30;1693073;83;20197;-85
2021/09/20 11:27:39;;;;;;;;;;;;;;;10.69;68.82;100315.85;1693822;83;20133;-84
2021/09/20 11:30:18;;;;;;;;;;;;;;;10.75;68.95;100319.20;1693626;83;20140;-85
2021/09/20 11:33:07;;;;;;;;;;;;;;;10.79;68.96;100322.36;1687761;83;21190;-85
2021/09/20 11:35:32;;;;;;;;;;;;;;;10.80;69.40;100321.86;1690320;83;20142;-83
2021/09/20 11:38:03;;;;;;;;;;;;;;;10.79;68.88;100319.72;1673197;84;20580;-89
2021/09/20 11:40:31;;;;;;;;;;;;;;;10.92;69.10;100316.66;1692173;83;21004;-83
2021/09/20 11:43:01;;;;;;;;;;;;;;;10.89;69.02;100324.90;1693953;82;20225;-84
2021/09/20 11:45:36;;;;;;;;;;;;;;;10.98;69.06;100329.77;1695892;83;21995;-86
2021/09/20 11:48:10;;;;;;;;;;;;;;;10.93;68.95;100328.91;1696189;83;20202;-83
2021/09/20 11:50:43;;;;;;;;;;;;;;;10.90;68.86;100326.06;1669591;84;20251;-83
2021/09/20 11:53:13;;;;;;;;;;;;;;;10.87;69.42;100330.84;1688436;83;20166;-88
2021/09/20 11:55:43;;;;;;;;;;;;;;;10.96;69.59;100335.20;1696220;83;20681;-86
2021/09/20 11:58:12;;;;;;;;;;;;;;;10.98;69.63;100329.26;1694039;83;20522;-90
2021/09/20 12:00:40;;;;;;;;;;;;;;;10.85;68.78;100338.09;1713925;83;20197;-83
2021/09/20 12:03:08;;;;;;;;;;;;;;;10.80;67.88;100344.31;1706726;83;20211;-84
2021/09/20 12:05:35;;;;;;;;;;;;;;;10.78;69.16;100342.67;1707386;83;20202;-86
2021/09/20 12:08:06;;;;;;;;;;;;;;;10.81;68.52;100344.66;1689353;83;20538;-85
2021/09/20 12:10:35;;;;;;;;;;;;;;;10.86;68.66;100343.23;1715425;83;21045;-84
2021/09/20 12:13:13;;;;;;;;;;;;;;;10.95;68.76;100344.95;1706179;82;20431;-82
2021/09/20 12:15:40;;;;;;;;;;;;;;;10.93;69.08;100350.86;1702236;83;20229;-83
2021/09/20 12:18:09;;;;;;;;;;;;;;;10.92;68.55;100349.69;1707119;83;20219;-85
2021/09/20 12:20:52;;;;;;;;;;;;;;;10.87;68.47;100350.66;1703561;82;20241;-84
2021/09/20 12:23:27;;;;;;;;;;;;;;;10.71;68.60;100350.85;1706431;82;21177;-90
2021/09/20 12:25:57;;;;;;;;;;;;;;;10.73;69.85;100351.52;1704443;83;20233;-84
2021/09/20 12:28:30;;;;;;;;;;;;;;;10.85;69.42;100360.55;1705432;82;20186;-84
2021/09/20 12:30:59;;;;;;;;;;;;;;;10.83;69.57;100359.86;1710603;83;21495;-86
2021/09/20 12:33:25;;;;;;;;;;;;;;;10.78;69.34;100361.16;1708047;83;20286;-85
2021/09/20 12:35:51;;;;;;;;;;;;;;;10.70;69.20;100359.75;1709614;83;21053;-86
2021/09/20 12:38:20;;;;;;;;;;;;;;;10.86;69.44;100360.88;1705931;83;20129;-86
2021/09/20 12:40:46;;;;;;;;;;;;;;;11.03;68.88;100364.00;1710348;82;20154;-85
2021/09/20 12:43:15;;;;;;;;;;;;;;;11.00;68.97;100357.70;1701711;83;20709;-83
2021/09/20 12:45:45;;;;;;;;;;;;;;;10.96;68.23;100362.94;1708970;82;20233;-84
2021/09/20 12:48:15;;;;;;;;;;;;;;;10.95;68.58;100368.73;1707500;83;21128;-86
2021/09/20 12:50:43;;;;;;;;;;;;;;;10.73;68.02;100367.38;1706085;82;20560;-92
2021/09/20 12:53:09;;;;;;;;;;;;;;;10.69;68.51;100368.67;1703734;83;20131;-84